sensor_id;sensor_type;location;lat;lon;timestamp;P1;durP1;ratioP1;P2;durP2;ratioP2
54823;SDS011;40724;53.196;5.980;2023-05-02T00:00:32;12.57;;;4.43;;
54823;SDS011;40724;53.196;5.980;2023-05-02T00:03:00;7.45;;;3.60;;
54823;SDS011;40724;53.196;5.980;2023-05-02T00:05:26;8.93;;;3.95;;
54823;SDS011;40724;53.196;5.980;2023-05-02T00:07:52;10.57;;;3.60;;
54823;SDS011;40724;53.196;5.980;2023-05-02T00:10:19;7.53;;;3.63;;
54823;SDS011;40724;53.196;5.980;2023-05-02T00:12:45;7.75;;;3.20;;
54823;SDS011;40724;53.196;5.980;2023-05-02T00:15:11;13.02;;;3.90;;
54823;SDS011;40724;53.196;5.980;2023-05-02T00:17:38;5.03;;;3.38;;
54823;SDS011;40724;53.196;5.980;2023-05-02T00:20:06;10.68;;;4.03;;
54823;SDS011;40724;53.196;5.980;2023-05-02T00:22:33;6.18;;;2.95;;
54823;SDS011;40724;53.196;5.980;2023-05-02T00:25:00;7.80;;;2.63;;
54823;SDS011;40724;53.196;5.980;2023-05-02T00:27:26;5.13;;;3.15;;
54823;SDS011;40724;53.196;5.980;2023-05-02T00:29:52;8.35;;;2.45;;
54823;SDS011;40724;53.196;5.980;2023-05-02T00:32:19;6.15;;;3.20;;
54823;SDS011;40724;53.196;5.980;2023-05-02T00:34:45;6.40;;;2.80;;
54823;SDS011;40724;53.196;5.980;2023-05-02T00:37:11;6.18;;;2.70;;
54823;SDS011;40724;53.196;5.980;2023-05-02T00:39:37;7.78;;;2.90;;
54823;SDS011;40724;53.196;5.980;2023-05-02T00:42:03;6.20;;;3.05;;
54823;SDS011;40724;53.196;5.980;2023-05-02T00:44:30;5.55;;;3.13;;
54823;SDS011;40724;53.196;5.980;2023-05-02T00:46:56;4.63;;;3.47;;
54823;SDS011;40724;53.196;5.980;2023-05-02T00:49:23;5.97;;;2.28;;
54823;SDS011;40724;53.196;5.980;2023-05-02T00:51:49;7.63;;;3.13;;
54823;SDS011;40724;53.196;5.980;2023-05-02T00:54:15;13.18;;;4.72;;
54823;SDS011;40724;53.196;5.980;2023-05-02T00:56:42;8.88;;;4.43;;
54823;SDS011;40724;53.196;5.980;2023-05-02T00:59:08;9.73;;;4.60;;
54823;SDS011;40724;53.196;5.980;2023-05-02T01:01:38;13.73;;;5.40;;
54823;SDS011;40724;53.196;5.980;2023-05-02T01:04:11;12.57;;;5.00;;
54823;SDS011;40724;53.196;5.980;2023-05-02T01:09:38;7.97;;;3.95;;
54823;SDS011;40724;53.196;5.980;2023-05-02T01:14:50;10.95;;;5.30;;
54823;SDS011;40724;53.196;5.980;2023-05-02T01:17:19;13.27;;;5.95;;
54823;SDS011;40724;53.196;5.980;2023-05-02T01:19:51;15.10;;;4.95;;
54823;SDS011;40724;53.196;5.980;2023-05-02T01:22:19;11.90;;;5.88;;
54823;SDS011;40724;53.196;5.980;2023-05-02T01:27:42;17.20;;;5.05;;
54823;SDS011;40724;53.196;5.980;2023-05-02T01:30:12;13.50;;;4.53;;
54823;SDS011;40724;53.196;5.980;2023-05-02T01:32:40;16.52;;;5.03;;
54823;SDS011;40724;53.196;5.980;2023-05-02T01:35:08;12.57;;;6.05;;
54823;SDS011;40724;53.196;5.980;2023-05-02T01:37:35;14.65;;;4.63;;
54823;SDS011;40724;53.196;5.980;2023-05-02T01:40:03;14.85;;;5.00;;
54823;SDS011;40724;53.196;5.980;2023-05-02T01:42:30;15.88;;;5.40;;
54823;SDS011;40724;53.196;5.980;2023-05-02T01:44:57;13.05;;;6.50;;
54823;SDS011;40724;53.196;5.980;2023-05-02T01:47:24;11.02;;;6.00;;
54823;SDS011;40724;53.196;5.980;2023-05-02T01:49:51;16.02;;;6.13;;
54823;SDS011;40724;53.196;5.980;2023-05-02T01:52:17;13.57;;;6.05;;
54823;SDS011;40724;53.196;5.980;2023-05-02T01:54:46;14.43;;;5.63;;
54823;SDS011;40724;53.196;5.980;2023-05-02T01:57:12;14.15;;;6.47;;
54823;SDS011;40724;53.196;5.980;2023-05-02T01:59:40;15.32;;;5.82;;
54823;SDS011;40724;53.196;5.980;2023-05-02T02:02:07;19.02;;;7.32;;
54823;SDS011;40724;53.196;5.980;2023-05-02T02:04:34;18.35;;;5.80;;
54823;SDS011;40724;53.196;5.980;2023-05-02T02:07:05;18.05;;;5.75;;
54823;SDS011;40724;53.196;5.980;2023-05-02T02:09:31;17.25;;;5.65;;
54823;SDS011;40724;53.196;5.980;2023-05-02T02:12:10;19.35;;;7.35;;
54823;SDS011;40724;53.196;5.980;2023-05-02T02:14:38;33.00;;;7.93;;
54823;SDS011;40724;53.196;5.980;2023-05-02T02:17:07;17.90;;;6.20;;
54823;SDS011;40724;53.196;5.980;2023-05-02T02:19:37;12.65;;;6.78;;
54823;SDS011;40724;53.196;5.980;2023-05-02T02:22:04;12.93;;;5.25;;
54823;SDS011;40724;53.196;5.980;2023-05-02T02:24:32;20.23;;;5.82;;
54823;SDS011;40724;53.196;5.980;2023-05-02T02:27:00;17.70;;;6.45;;
54823;SDS011;40724;53.196;5.980;2023-05-02T02:29:26;24.63;;;6.13;;
54823;SDS011;40724;53.196;5.980;2023-05-02T02:31:53;16.05;;;7.22;;
54823;SDS011;40724;53.196;5.980;2023-05-02T02:34:19;24.92;;;5.82;;
54823;SDS011;40724;53.196;5.980;2023-05-02T02:41:47;11.55;;;5.35;;
54823;SDS011;40724;53.196;5.980;2023-05-02T02:47:15;16.55;;;5.95;;
54823;SDS011;40724;53.196;5.980;2023-05-02T02:49:37;14.60;;;4.57;;
54823;SDS011;40724;53.196;5.980;2023-05-02T02:52:09;15.23;;;5.50;;
54823;SDS011;40724;53.196;5.980;2023-05-02T02:54:46;12.05;;;4.53;;
54823;SDS011;40724;53.196;5.980;2023-05-02T02:57:16;14.13;;;4.60;;
54823;SDS011;40724;53.196;5.980;2023-05-02T03:00:06;10.18;;;4.43;;
54823;SDS011;40724;53.196;5.980;2023-05-02T03:02:31;8.35;;;3.58;;
54823;SDS011;40724;53.196;5.980;2023-05-02T03:04:57;18.58;;;4.15;;
54823;SDS011;40724;53.196;5.980;2023-05-02T03:07:26;14.82;;;4.22;;
54823;SDS011;40724;53.196;5.980;2023-05-02T03:09:52;10.43;;;4.13;;
54823;SDS011;40724;53.196;5.980;2023-05-02T03:12:18;8.70;;;3.53;;
54823;SDS011;40724;53.196;5.980;2023-05-02T03:14:45;8.95;;;3.88;;
54823;SDS011;40724;53.196;5.980;2023-05-02T03:17:11;9.93;;;3.42;;
54823;SDS011;40724;53.196;5.980;2023-05-02T03:19:37;14.93;;;3.67;;
54823;SDS011;40724;53.196;5.980;2023-05-02T03:22:04;14.88;;;5.97;;
54823;SDS011;40724;53.196;5.980;2023-05-02T03:24:30;13.70;;;4.30;;
54823;SDS011;40724;53.196;5.980;2023-05-02T03:26:56;10.15;;;3.55;;
54823;SDS011;40724;53.196;5.980;2023-05-02T03:29:23;13.10;;;4.07;;
54823;SDS011;40724;53.196;5.980;2023-05-02T03:31:50;11.85;;;3.70;;
54823;SDS011;40724;53.196;5.980;2023-05-02T03:34:16;9.93;;;3.63;;
54823;SDS011;40724;53.196;5.980;2023-05-02T03:36:43;9.60;;;3.55;;
54823;SDS011;40724;53.196;5.980;2023-05-02T03:39:10;10.52;;;4.93;;
54823;SDS011;40724;53.196;5.980;2023-05-02T03:41:36;12.90;;;3.47;;
54823;SDS011;40724;53.196;5.980;2023-05-02T03:44:02;8.88;;;3.30;;
54823;SDS011;40724;53.196;5.980;2023-05-02T03:46:28;8.27;;;3.58;;
54823;SDS011;40724;53.196;5.980;2023-05-02T03:48:56;9.45;;;2.65;;
54823;SDS011;40724;53.196;5.980;2023-05-02T03:51:22;10.13;;;4.43;;
54823;SDS011;40724;53.196;5.980;2023-05-02T03:53:48;10.40;;;2.95;;
54823;SDS011;40724;53.196;5.980;2023-05-02T03:56:18;15.35;;;3.45;;
54823;SDS011;40724;53.196;5.980;2023-05-02T03:58:44;9.90;;;2.92;;
54823;SDS011;40724;53.196;5.980;2023-05-02T04:01:14;5.75;;;2.00;;
54823;SDS011;40724;53.196;5.980;2023-05-02T04:03:41;4.95;;;2.10;;
54823;SDS011;40724;53.196;5.980;2023-05-02T04:06:07;8.15;;;2.97;;
54823;SDS011;40724;53.196;5.980;2023-05-02T04:08:33;6.22;;;2.63;;
54823;SDS011;40724;53.196;5.980;2023-05-02T04:10:59;7.57;;;2.38;;
54823;SDS011;40724;53.196;5.980;2023-05-02T04:13:25;4.95;;;2.17;;
54823;SDS011;40724;53.196;5.980;2023-05-02T04:15:53;5.00;;;1.85;;
54823;SDS011;40724;53.196;5.980;2023-05-02T04:18:19;8.15;;;2.80;;
54823;SDS011;40724;53.196;5.980;2023-05-02T04:20:45;10.13;;;2.33;;
54823;SDS011;40724;53.196;5.980;2023-05-02T04:23:11;5.55;;;2.30;;
54823;SDS011;40724;53.196;5.980;2023-05-02T04:25:38;4.95;;;2.40;;
54823;SDS011;40724;53.196;5.980;2023-05-02T04:28:04;6.85;;;2.10;;
54823;SDS011;40724;53.196;5.980;2023-05-02T04:30:31;8.15;;;3.00;;
54823;SDS011;40724;53.196;5.980;2023-05-02T04:32:57;3.67;;;2.15;;
54823;SDS011;40724;53.196;5.980;2023-05-02T04:35:23;10.27;;;1.92;;
54823;SDS011;40724;53.196;5.980;2023-05-02T04:37:49;7.00;;;2.90;;
54823;SDS011;40724;53.196;5.980;2023-05-02T04:40:16;10.02;;;2.38;;
54823;SDS011;40724;53.196;5.980;2023-05-02T04:42:42;6.25;;;2.10;;
54823;SDS011;40724;53.196;5.980;2023-05-02T04:45:08;6.72;;;2.85;;
54823;SDS011;40724;53.196;5.980;2023-05-02T04:47:34;9.23;;;2.97;;
54823;SDS011;40724;53.196;5.980;2023-05-02T04:50:00;11.45;;;3.20;;
54823;SDS011;40724;53.196;5.980;2023-05-02T04:52:26;10.10;;;2.97;;
54823;SDS011;40724;53.196;5.980;2023-05-02T04:54:53;10.70;;;3.75;;
54823;SDS011;40724;53.196;5.980;2023-05-02T04:57:19;9.35;;;3.58;;
54823;SDS011;40724;53.196;5.980;2023-05-02T04:59:45;11.38;;;4.15;;
54823;SDS011;40724;53.196;5.980;2023-05-02T05:02:11;9.75;;;3.30;;
54823;SDS011;40724;53.196;5.980;2023-05-02T05:04:37;6.40;;;2.80;;
54823;SDS011;40724;53.196;5.980;2023-05-02T05:07:03;12.50;;;3.33;;
54823;SDS011;40724;53.196;5.980;2023-05-02T05:09:29;6.18;;;3.20;;
54823;SDS011;40724;53.196;5.980;2023-05-02T05:11:56;8.85;;;3.53;;
54823;SDS011;40724;53.196;5.980;2023-05-02T05:14:22;7.72;;;3.25;;
54823;SDS011;40724;53.196;5.980;2023-05-02T05:16:48;9.68;;;3.03;;
54823;SDS011;40724;53.196;5.980;2023-05-02T05:19:14;8.20;;;3.13;;
54823;SDS011;40724;53.196;5.980;2023-05-02T05:21:40;9.30;;;3.20;;
54823;SDS011;40724;53.196;5.980;2023-05-02T05:24:06;9.30;;;2.97;;
54823;SDS011;40724;53.196;5.980;2023-05-02T05:26:33;9.15;;;4.60;;
54823;SDS011;40724;53.196;5.980;2023-05-02T05:28:59;8.98;;;3.17;;
54823;SDS011;40724;53.196;5.980;2023-05-02T05:31:25;7.53;;;3.67;;
54823;SDS011;40724;53.196;5.980;2023-05-02T05:33:51;10.48;;;4.03;;
54823;SDS011;40724;53.196;5.980;2023-05-02T05:36:17;9.75;;;3.40;;
54823;SDS011;40724;53.196;5.980;2023-05-02T05:38:44;10.50;;;3.25;;
54823;SDS011;40724;53.196;5.980;2023-05-02T05:41:10;7.88;;;2.92;;
54823;SDS011;40724;53.196;5.980;2023-05-02T05:43:36;4.88;;;2.45;;
54823;SDS011;40724;53.196;5.980;2023-05-02T05:46:02;5.68;;;2.80;;
54823;SDS011;40724;53.196;5.980;2023-05-02T05:48:29;7.43;;;3.00;;
54823;SDS011;40724;53.196;5.980;2023-05-02T05:50:55;10.93;;;2.88;;
54823;SDS011;40724;53.196;5.980;2023-05-02T05:53:21;9.43;;;3.08;;
54823;SDS011;40724;53.196;5.980;2023-05-02T05:55:47;8.70;;;3.13;;
54823;SDS011;40724;53.196;5.980;2023-05-02T05:58:14;8.23;;;4.03;;
54823;SDS011;40724;53.196;5.980;2023-05-02T06:00:40;8.57;;;3.05;;
54823;SDS011;40724;53.196;5.980;2023-05-02T06:03:06;8.48;;;2.67;;
54823;SDS011;40724;53.196;5.980;2023-05-02T06:05:32;9.48;;;3.30;;
54823;SDS011;40724;53.196;5.980;2023-05-02T06:07:58;7.80;;;2.72;;
54823;SDS011;40724;53.196;5.980;2023-05-02T06:10:25;9.10;;;3.20;;
54823;SDS011;40724;53.196;5.980;2023-05-02T06:12:51;10.23;;;3.10;;
54823;SDS011;40724;53.196;5.980;2023-05-02T06:15:17;6.68;;;2.65;;
54823;SDS011;40724;53.196;5.980;2023-05-02T06:17:43;8.43;;;2.95;;
54823;SDS011;40724;53.196;5.980;2023-05-02T06:20:09;7.70;;;2.83;;
54823;SDS011;40724;53.196;5.980;2023-05-02T06:22:35;7.10;;;3.72;;
54823;SDS011;40724;53.196;5.980;2023-05-02T06:25:03;7.57;;;2.90;;
54823;SDS011;40724;53.196;5.980;2023-05-02T06:27:31;7.07;;;3.53;;
54823;SDS011;40724;53.196;5.980;2023-05-02T06:29:57;7.13;;;3.05;;
54823;SDS011;40724;53.196;5.980;2023-05-02T06:32:23;8.75;;;3.17;;
54823;SDS011;40724;53.196;5.980;2023-05-02T06:34:50;12.13;;;3.20;;
54823;SDS011;40724;53.196;5.980;2023-05-02T06:37:16;6.57;;;2.42;;
54823;SDS011;40724;53.196;5.980;2023-05-02T06:39:42;9.25;;;3.15;;
54823;SDS011;40724;53.196;5.980;2023-05-02T06:42:08;6.65;;;3.35;;
54823;SDS011;40724;53.196;5.980;2023-05-02T06:44:34;7.88;;;3.33;;
54823;SDS011;40724;53.196;5.980;2023-05-02T06:47:00;13.07;;;3.30;;
54823;SDS011;40724;53.196;5.980;2023-05-02T06:49:29;7.45;;;3.55;;
54823;SDS011;40724;53.196;5.980;2023-05-02T06:51:55;10.70;;;3.60;;
54823;SDS011;40724;53.196;5.980;2023-05-02T06:54:21;6.63;;;3.47;;
54823;SDS011;40724;53.196;5.980;2023-05-02T06:56:47;10.00;;;3.25;;
54823;SDS011;40724;53.196;5.980;2023-05-02T06:59:14;6.88;;;3.05;;
54823;SDS011;40724;53.196;5.980;2023-05-02T07:01:43;9.15;;;3.45;;
54823;SDS011;40724;53.196;5.980;2023-05-02T07:04:09;9.48;;;3.72;;
54823;SDS011;40724;53.196;5.980;2023-05-02T07:06:35;8.18;;;3.15;;
54823;SDS011;40724;53.196;5.980;2023-05-02T07:09:01;7.32;;;2.92;;
54823;SDS011;40724;53.196;5.980;2023-05-02T07:11:27;7.45;;;3.85;;
54823;SDS011;40724;53.196;5.980;2023-05-02T07:13:53;16.75;;;3.67;;
54823;SDS011;40724;53.196;5.980;2023-05-02T07:16:20;5.65;;;3.25;;
54823;SDS011;40724;53.196;5.980;2023-05-02T07:18:46;7.88;;;3.25;;
54823;SDS011;40724;53.196;5.980;2023-05-02T07:21:12;12.00;;;3.88;;
54823;SDS011;40724;53.196;5.980;2023-05-02T07:23:38;16.83;;;4.55;;
54823;SDS011;40724;53.196;5.980;2023-05-02T07:26:06;10.25;;;4.13;;
54823;SDS011;40724;53.196;5.980;2023-05-02T07:28:32;8.70;;;3.05;;
54823;SDS011;40724;53.196;5.980;2023-05-02T07:30:58;8.23;;;2.63;;
54823;SDS011;40724;53.196;5.980;2023-05-02T07:33:24;11.95;;;4.93;;
54823;SDS011;40724;53.196;5.980;2023-05-02T07:35:50;11.48;;;3.20;;
54823;SDS011;40724;53.196;5.980;2023-05-02T07:38:17;7.70;;;3.00;;
54823;SDS011;40724;53.196;5.980;2023-05-02T07:40:43;8.02;;;2.67;;
54823;SDS011;40724;53.196;5.980;2023-05-02T07:43:10;8.55;;;3.10;;
54823;SDS011;40724;53.196;5.980;2023-05-02T07:45:37;4.80;;;2.70;;
54823;SDS011;40724;53.196;5.980;2023-05-02T07:48:03;7.68;;;2.83;;
54823;SDS011;40724;53.196;5.980;2023-05-02T07:50:29;14.13;;;4.68;;
54823;SDS011;40724;53.196;5.980;2023-05-02T07:52:55;9.55;;;2.97;;
54823;SDS011;40724;53.196;5.980;2023-05-02T07:55:21;8.50;;;3.95;;
54823;SDS011;40724;53.196;5.980;2023-05-02T07:57:50;10.38;;;2.95;;
54823;SDS011;40724;53.196;5.980;2023-05-02T08:00:17;6.93;;;3.45;;
54823;SDS011;40724;53.196;5.980;2023-05-02T08:02:43;10.43;;;2.75;;
54823;SDS011;40724;53.196;5.980;2023-05-02T08:05:10;7.80;;;2.55;;
54823;SDS011;40724;53.196;5.980;2023-05-02T08:07:36;5.18;;;2.50;;
54823;SDS011;40724;53.196;5.980;2023-05-02T08:10:02;9.00;;;3.17;;
54823;SDS011;40724;53.196;5.980;2023-05-02T08:12:29;5.63;;;2.00;;
54823;SDS011;40724;53.196;5.980;2023-05-02T08:14:55;10.73;;;2.80;;
54823;SDS011;40724;53.196;5.980;2023-05-02T08:17:21;6.97;;;2.15;;
54823;SDS011;40724;53.196;5.980;2023-05-02T08:19:47;12.43;;;3.22;;
54823;SDS011;40724;53.196;5.980;2023-05-02T08:22:13;6.55;;;2.70;;
54823;SDS011;40724;53.196;5.980;2023-05-02T08:24:39;6.05;;;2.17;;
54823;SDS011;40724;53.196;5.980;2023-05-02T08:27:05;7.68;;;2.97;;
54823;SDS011;40724;53.196;5.980;2023-05-02T08:29:31;8.18;;;3.50;;
54823;SDS011;40724;53.196;5.980;2023-05-02T08:31:58;6.10;;;2.58;;
54823;SDS011;40724;53.196;5.980;2023-05-02T08:34:24;8.02;;;2.40;;
54823;SDS011;40724;53.196;5.980;2023-05-02T08:36:50;6.13;;;2.30;;
54823;SDS011;40724;53.196;5.980;2023-05-02T08:39:16;9.27;;;2.58;;
54823;SDS011;40724;53.196;5.980;2023-05-02T08:41:43;6.78;;;2.45;;
54823;SDS011;40724;53.196;5.980;2023-05-02T08:44:11;18.38;;;2.65;;
54823;SDS011;40724;53.196;5.980;2023-05-02T08:46:39;6.80;;;1.83;;
54823;SDS011;40724;53.196;5.980;2023-05-02T08:49:05;4.72;;;1.80;;
54823;SDS011;40724;53.196;5.980;2023-05-02T08:51:32;8.07;;;1.77;;
54823;SDS011;40724;53.196;5.980;2023-05-02T08:54:01;3.17;;;1.88;;
54823;SDS011;40724;53.196;5.980;2023-05-02T08:56:31;4.60;;;1.52;;
54823;SDS011;40724;53.196;5.980;2023-05-02T08:58:58;4.32;;;1.95;;
54823;SDS011;40724;53.196;5.980;2023-05-02T09:01:26;4.82;;;1.38;;
54823;SDS011;40724;53.196;5.980;2023-05-02T09:03:53;5.13;;;2.28;;
54823;SDS011;40724;53.196;5.980;2023-05-02T09:06:21;8.70;;;2.05;;
54823;SDS011;40724;53.196;5.980;2023-05-02T09:08:48;2.67;;;1.55;;
54823;SDS011;40724;53.196;5.980;2023-05-02T09:11:15;5.28;;;1.77;;
54823;SDS011;40724;53.196;5.980;2023-05-02T09:13:46;5.32;;;1.75;;
54823;SDS011;40724;53.196;5.980;2023-05-02T09:16:12;3.40;;;1.75;;
54823;SDS011;40724;53.196;5.980;2023-05-02T09:21:06;3.90;;;1.67;;
54823;SDS011;40724;53.196;5.980;2023-05-02T09:23:33;5.13;;;1.63;;
54823;SDS011;40724;53.196;5.980;2023-05-02T09:26:00;5.57;;;1.70;;
54823;SDS011;40724;53.196;5.980;2023-05-02T09:28:39;3.63;;;1.60;;
54823;SDS011;40724;53.196;5.980;2023-05-02T09:31:09;4.57;;;1.80;;
54823;SDS011;40724;53.196;5.980;2023-05-02T09:33:36;12.38;;;2.17;;
54823;SDS011;40724;53.196;5.980;2023-05-02T09:36:03;4.55;;;2.25;;
54823;SDS011;40724;53.196;5.980;2023-05-02T09:38:31;4.82;;;1.80;;
54823;SDS011;40724;53.196;5.980;2023-05-02T09:40:58;5.50;;;2.30;;
54823;SDS011;40724;53.196;5.980;2023-05-02T09:43:27;5.28;;;1.80;;
54823;SDS011;40724;53.196;5.980;2023-05-02T09:46:00;5.32;;;1.80;;
54823;SDS011;40724;53.196;5.980;2023-05-02T09:48:27;7.68;;;2.03;;
54823;SDS011;40724;53.196;5.980;2023-05-02T09:50:54;3.30;;;2.05;;
54823;SDS011;40724;53.196;5.980;2023-05-02T09:53:20;4.00;;;1.92;;
54823;SDS011;40724;53.196;5.980;2023-05-02T09:55:47;4.97;;;1.77;;
54823;SDS011;40724;53.196;5.980;2023-05-02T09:58:20;5.00;;;1.77;;
54823;SDS011;40724;53.196;5.980;2023-05-02T10:00:49;3.55;;;1.70;;
54823;SDS011;40724;53.196;5.980;2023-05-02T10:03:17;1.52;;;1.00;;
54823;SDS011;40724;53.196;5.980;2023-05-02T10:05:44;2.25;;;1.20;;
54823;SDS011;40724;53.196;5.980;2023-05-02T10:08:10;3.45;;;1.30;;
54823;SDS011;40724;53.196;5.980;2023-05-02T10:10:38;2.63;;;1.50;;
54823;SDS011;40724;53.196;5.980;2023-05-02T10:13:06;3.47;;;1.40;;
54823;SDS011;40724;53.196;5.980;2023-05-02T10:15:33;2.20;;;1.13;;
54823;SDS011;40724;53.196;5.980;2023-05-02T10:17:59;6.50;;;1.63;;
54823;SDS011;40724;53.196;5.980;2023-05-02T10:20:29;8.80;;;1.95;;
54823;SDS011;40724;53.196;5.980;2023-05-02T10:22:58;6.03;;;1.80;;
54823;SDS011;40724;53.196;5.980;2023-05-02T10:25:25;7.82;;;1.98;;
54823;SDS011;40724;53.196;5.980;2023-05-02T10:27:51;5.90;;;2.45;;
54823;SDS011;40724;53.196;5.980;2023-05-02T10:30:17;5.10;;;1.83;;
54823;SDS011;40724;53.196;5.980;2023-05-02T10:32:45;3.28;;;1.95;;
54823;SDS011;40724;53.196;5.980;2023-05-02T10:35:12;2.85;;;1.75;;
54823;SDS011;40724;53.196;5.980;2023-05-02T10:37:40;6.30;;;1.88;;
54823;SDS011;40724;53.196;5.980;2023-05-02T10:40:10;3.63;;;1.67;;
54823;SDS011;40724;53.196;5.980;2023-05-02T10:42:39;5.63;;;2.17;;
54823;SDS011;40724;53.196;5.980;2023-05-02T10:45:48;4.10;;;2.00;;
54823;SDS011;40724;53.196;5.980;2023-05-02T10:50:47;4.53;;;1.65;;
54823;SDS011;40724;53.196;5.980;2023-05-02T10:53:26;7.47;;;2.13;;
54823;SDS011;40724;53.196;5.980;2023-05-02T10:56:12;4.22;;;1.55;;
54823;SDS011;40724;53.196;5.980;2023-05-02T10:58:40;3.35;;;1.45;;
54823;SDS011;40724;53.196;5.980;2023-05-02T11:03:54;3.60;;;1.77;;
54823;SDS011;40724;53.196;5.980;2023-05-02T11:06:21;2.63;;;1.40;;
54823;SDS011;40724;53.196;5.980;2023-05-02T11:08:47;4.55;;;2.40;;
54823;SDS011;40724;53.196;5.980;2023-05-02T11:13:58;1.88;;;1.30;;
54823;SDS011;40724;53.196;5.980;2023-05-02T11:16:24;7.78;;;1.73;;
54823;SDS011;40724;53.196;5.980;2023-05-02T11:18:56;2.33;;;1.58;;
54823;SDS011;40724;53.196;5.980;2023-05-02T11:21:24;5.88;;;1.98;;
54823;SDS011;40724;53.196;5.980;2023-05-02T11:24:06;5.53;;;1.45;;
54823;SDS011;40724;53.196;5.980;2023-05-02T11:26:38;5.50;;;1.48;;
54823;SDS011;40724;53.196;5.980;2023-05-02T11:29:04;5.10;;;1.60;;
54823;SDS011;40724;53.196;5.980;2023-05-02T11:33:57;2.95;;;1.75;;
54823;SDS011;40724;53.196;5.980;2023-05-02T11:36:33;4.70;;;1.85;;
54823;SDS011;40724;53.196;5.980;2023-05-02T11:39:00;10.15;;;2.22;;
54823;SDS011;40724;53.196;5.980;2023-05-02T11:41:39;7.60;;;2.63;;
54823;SDS011;40724;53.196;5.980;2023-05-02T11:44:05;2.35;;;1.40;;
54823;SDS011;40724;53.196;5.980;2023-05-02T11:46:32;4.82;;;1.20;;
54823;SDS011;40724;53.196;5.980;2023-05-02T11:48:59;2.95;;;1.00;;
54823;SDS011;40724;53.196;5.980;2023-05-02T11:51:25;1.60;;;0.68;;
54823;SDS011;40724;53.196;5.980;2023-05-02T11:53:51;2.88;;;0.98;;
54823;SDS011;40724;53.196;5.980;2023-05-02T11:56:21;8.43;;;2.15;;
54823;SDS011;40724;53.196;5.980;2023-05-02T11:58:56;3.38;;;1.48;;
54823;SDS011;40724;53.196;5.980;2023-05-02T12:01:23;3.65;;;1.35;;
54823;SDS011;40724;53.196;5.980;2023-05-02T12:03:50;3.45;;;1.17;;
54823;SDS011;40724;53.196;5.980;2023-05-02T12:06:26;1.65;;;1.08;;
54823;SDS011;40724;53.196;5.980;2023-05-02T12:08:52;4.38;;;1.25;;
54823;SDS011;40724;53.196;5.980;2023-05-02T12:11:30;3.90;;;1.42;;
54823;SDS011;40724;53.196;5.980;2023-05-02T12:13:56;4.05;;;1.20;;
54823;SDS011;40724;53.196;5.980;2023-05-02T12:16:22;4.72;;;1.13;;
54823;SDS011;40724;53.196;5.980;2023-05-02T12:18:49;3.88;;;1.42;;
54823;SDS011;40724;53.196;5.980;2023-05-02T12:21:15;5.47;;;2.03;;
54823;SDS011;40724;53.196;5.980;2023-05-02T12:23:42;3.70;;;1.55;;
54823;SDS011;40724;53.196;5.980;2023-05-02T12:26:42;8.65;;;2.17;;
54823;SDS011;40724;53.196;5.980;2023-05-02T12:29:01;4.32;;;1.92;;
54823;SDS011;40724;53.196;5.980;2023-05-02T12:31:27;7.80;;;1.83;;
54823;SDS011;40724;53.196;5.980;2023-05-02T12:33:55;6.13;;;1.38;;
54823;SDS011;40724;53.196;5.980;2023-05-02T12:36:23;6.65;;;1.40;;
54823;SDS011;40724;53.196;5.980;2023-05-02T12:38:50;2.72;;;1.67;;
54823;SDS011;40724;53.196;5.980;2023-05-02T12:41:17;2.92;;;1.85;;
54823;SDS011;40724;53.196;5.980;2023-05-02T12:43:47;2.58;;;1.35;;
54823;SDS011;40724;53.196;5.980;2023-05-02T12:46:13;2.72;;;1.52;;
54823;SDS011;40724;53.196;5.980;2023-05-02T12:48:40;3.92;;;1.10;;
54823;SDS011;40724;53.196;5.980;2023-05-02T12:51:21;2.28;;;1.40;;
54823;SDS011;40724;53.196;5.980;2023-05-02T12:53:48;2.03;;;1.20;;
54823;SDS011;40724;53.196;5.980;2023-05-02T12:56:14;1.75;;;1.00;;
54823;SDS011;40724;53.196;5.980;2023-05-02T12:58:41;2.85;;;1.20;;
54823;SDS011;40724;53.196;5.980;2023-05-02T13:01:07;2.35;;;1.10;;
54823;SDS011;40724;53.196;5.980;2023-05-02T13:03:34;3.22;;;1.35;;
54823;SDS011;40724;53.196;5.980;2023-05-02T13:06:00;5.88;;;1.20;;
54823;SDS011;40724;53.196;5.980;2023-05-02T13:08:27;1.83;;;1.20;;
54823;SDS011;40724;53.196;5.980;2023-05-02T13:10:53;5.40;;;1.35;;
54823;SDS011;40724;53.196;5.980;2023-05-02T13:13:19;2.45;;;1.10;;
54823;SDS011;40724;53.196;5.980;2023-05-02T13:15:46;1.77;;;1.20;;
54823;SDS011;40724;53.196;5.980;2023-05-02T13:18:12;7.30;;;1.75;;
54823;SDS011;40724;53.196;5.980;2023-05-02T13:20:38;3.17;;;1.15;;
54823;SDS011;40724;53.196;5.980;2023-05-02T13:23:04;3.55;;;1.33;;
54823;SDS011;40724;53.196;5.980;2023-05-02T13:25:30;3.30;;;1.30;;
54823;SDS011;40724;53.196;5.980;2023-05-02T13:27:56;1.92;;;1.25;;
54823;SDS011;40724;53.196;5.980;2023-05-02T13:30:23;1.75;;;1.10;;
54823;SDS011;40724;53.196;5.980;2023-05-02T13:32:49;1.90;;;0.93;;
54823;SDS011;40724;53.196;5.980;2023-05-02T13:35:15;1.50;;;0.90;;
54823;SDS011;40724;53.196;5.980;2023-05-02T13:37:42;2.97;;;1.20;;
54823;SDS011;40724;53.196;5.980;2023-05-02T13:40:08;6.22;;;2.15;;
54823;SDS011;40724;53.196;5.980;2023-05-02T13:42:35;1.88;;;0.90;;
54823;SDS011;40724;53.196;5.980;2023-05-02T13:45:01;2.72;;;1.20;;
54823;SDS011;40724;53.196;5.980;2023-05-02T13:47:29;1.45;;;0.93;;
54823;SDS011;40724;53.196;5.980;2023-05-02T13:49:55;3.53;;;1.40;;
54823;SDS011;40724;53.196;5.980;2023-05-02T13:52:21;6.85;;;1.38;;
54823;SDS011;40724;53.196;5.980;2023-05-02T13:54:47;4.60;;;1.60;;
54823;SDS011;40724;53.196;5.980;2023-05-02T13:57:14;3.20;;;1.25;;
54823;SDS011;40724;53.196;5.980;2023-05-02T13:59:40;4.00;;;1.20;;
54823;SDS011;40724;53.196;5.980;2023-05-02T14:02:06;3.53;;;1.23;;
54823;SDS011;40724;53.196;5.980;2023-05-02T14:04:32;3.83;;;1.23;;
54823;SDS011;40724;53.196;5.980;2023-05-02T14:06:58;4.15;;;1.50;;
54823;SDS011;40724;53.196;5.980;2023-05-02T14:09:25;4.97;;;1.85;;
54823;SDS011;40724;53.196;5.980;2023-05-02T14:11:51;3.13;;;1.45;;
54823;SDS011;40724;53.196;5.980;2023-05-02T14:14:17;6.13;;;2.38;;
54823;SDS011;40724;53.196;5.980;2023-05-02T14:16:43;5.38;;;1.83;;
54823;SDS011;40724;53.196;5.980;2023-05-02T14:19:09;3.72;;;1.08;;
54823;SDS011;40724;53.196;5.980;2023-05-02T14:21:36;5.47;;;1.85;;
54823;SDS011;40724;53.196;5.980;2023-05-02T14:24:03;5.70;;;1.40;;
54823;SDS011;40724;53.196;5.980;2023-05-02T14:26:30;2.83;;;1.33;;
54823;SDS011;40724;53.196;5.980;2023-05-02T14:28:57;2.60;;;1.38;;
54823;SDS011;40724;53.196;5.980;2023-05-02T14:31:23;3.17;;;1.52;;
54823;SDS011;40724;53.196;5.980;2023-05-02T14:33:49;7.18;;;2.13;;
54823;SDS011;40724;53.196;5.980;2023-05-02T14:36:15;5.88;;;1.67;;
54823;SDS011;40724;53.196;5.980;2023-05-02T14:38:41;5.35;;;2.13;;
54823;SDS011;40724;53.196;5.980;2023-05-02T14:41:08;5.18;;;1.55;;
54823;SDS011;40724;53.196;5.980;2023-05-02T14:43:34;5.40;;;1.70;;
54823;SDS011;40724;53.196;5.980;2023-05-02T14:46:01;2.55;;;1.20;;
54823;SDS011;40724;53.196;5.980;2023-05-02T14:48:28;3.05;;;1.60;;
54823;SDS011;40724;53.196;5.980;2023-05-02T14:50:54;4.90;;;1.75;;
54823;SDS011;40724;53.196;5.980;2023-05-02T14:53:21;3.65;;;1.27;;
54823;SDS011;40724;53.196;5.980;2023-05-02T14:55:47;2.08;;;1.25;;
54823;SDS011;40724;53.196;5.980;2023-05-02T14:58:13;7.47;;;1.45;;
54823;SDS011;40724;53.196;5.980;2023-05-02T15:00:44;4.13;;;1.35;;
54823;SDS011;40724;53.196;5.980;2023-05-02T15:03:11;8.50;;;1.45;;
54823;SDS011;40724;53.196;5.980;2023-05-02T15:05:37;6.80;;;1.40;;
54823;SDS011;40724;53.196;5.980;2023-05-02T15:08:04;5.55;;;1.58;;
54823;SDS011;40724;53.196;5.980;2023-05-02T15:10:30;6.75;;;1.20;;
54823;SDS011;40724;53.196;5.980;2023-05-02T15:12:58;2.05;;;0.95;;
54823;SDS011;40724;53.196;5.980;2023-05-02T15:15:24;2.38;;;1.15;;